Storm Events Database

Event Details

Event Hail
Magnitude 1.25 in.
State GEORGIA
County/Area EVANS
WFO CHS
Begin Date 03/27/2011 14:11:00 EST-5
Begin Range 2
Begin Azimuth ENE
Begin Location CLAXTON EVANS CO ARP
Begin Lat/Lon 32.21/-81.84
End Date 03/27/2011 14:12:00 EST-5
Deaths Direct/Indirect 0/0 (fatality details below, when available...)
Injuries Direct/Indirect 0/0
Property Damage
Crop Damage
Episode Narrative A frontal boundary in combination with modest instability and strong deep layer shear, resulted in scattered strong to severe thunderstorm development across southern South Carolina and southeast Georgia.
Event Narrative The Public reported half dollar size hail, 4 miles north of Daisy, Georgia.


All events for this episode:

Location County/Zone St. Date Time T.Z. Type Mag Dth Inj PrD CrD
Totals: 0 0 28.00K 0.00K
CLYO EFFINGHAM CO. GA 03/27/2011 12:55 EST-5 Thunderstorm Wind 50 kts. EG 0 0 1.00K 0.00K
METTER CANDLER CO. GA 03/27/2011 13:14 EST-5 Hail 1.00 in. 0 0 0.00K 0.00K
PULASKI CANDLER CO. GA 03/27/2011 13:15 EST-5 Hail 1.00 in. 0 0 0.00K 0.00K
COLLEGEBORO BULLOCH CO. GA 03/27/2011 13:24 EST-5 Hail 1.00 in. 0 0 0.00K 0.00K
BROOKLET BULLOCH CO. GA 03/27/2011 13:30 EST-5 Hail 1.00 in. 0 0 0.00K 0.00K
BROOKLET BULLOCH CO. GA 03/27/2011 13:40 EST-5 Hail 1.00 in. 0 0 0.00K 0.00K
PINEORA EFFINGHAM CO. GA 03/27/2011 13:45 EST-5 Hail 1.00 in. 0 0 0.00K 0.00K
COBBTOWN TATTNALL CO. GA 03/27/2011 13:50 EST-5 Hail 1.50 in. 0 0 0.00K 0.00K
COBBTOWN TATTNALL CO. GA 03/27/2011 13:51 EST-5 Hail 1.00 in. 0 0 0.00K 0.00K
GUYTON EFFINGHAM CO. GA 03/27/2011 13:54 EST-5 Hail 0.88 in. 0 0 0.00K 0.00K
GUYTON EFFINGHAM CO. GA 03/27/2011 13:55 EST-5 Hail 1.00 in. 0 0 0.00K 0.00K
GUYTON EFFINGHAM CO. GA 03/27/2011 13:58 EST-5 Hail 1.75 in. 0 0 0.00K 0.00K
RINCON EFFINGHAM CO. GA 03/27/2011 14:00 EST-5 Hail 1.00 in. 0 0 0.00K 0.00K
GUYTON EFFINGHAM CO. GA 03/27/2011 14:00 EST-5 Hail 1.00 in. 0 0 0.00K 0.00K
RINCON EFFINGHAM CO. GA 03/27/2011 14:02 EST-5 Hail 1.75 in. 0 0 10.00K 0.00K
RINCON EFFINGHAM CO. GA 03/27/2011 14:02 EST-5 Hail 1.25 in. 0 0 5.00K 0.00K
CLAXTON EVANS CO ARP EVANS CO. GA 03/27/2011 14:02 EST-5 Hail 1.75 in. 0 0 0.00K 0.00K
RAHN EFFINGHAM CO. GA 03/27/2011 14:03 EST-5 Hail 1.50 in. 0 0 0.00K 0.00K
RINCON EFFINGHAM CO. GA 03/27/2011 14:04 EST-5 Hail 2.00 in. 0 0 0.00K 0.00K
RINCON EFFINGHAM CO. GA 03/27/2011 14:05 EST-5 Hail 1.75 in. 0 0 0.00K 0.00K
RINCON EFFINGHAM CO. GA 03/27/2011 14:08 EST-5 Hail 1.00 in. 0 0 0.00K 0.00K
CLAXTON EVANS CO ARP EVANS CO. GA 03/27/2011 14:09 EST-5 Hail 2.50 in. 0 0 0.00K 0.00K
RINCON EFFINGHAM CO. GA 03/27/2011 14:09 EST-5 Hail 1.00 in. 0 0 0.00K 0.00K
CLAXTON EVANS CO ARP EVANS CO. GA 03/27/2011 14:11 EST-5 Hail 1.25 in. 0 0 0.00K 0.00K
RAHN EFFINGHAM CO. GA 03/27/2011 14:12 EST-5 Hail 1.75 in. 0 0 0.00K 0.00K
RINCON EFFINGHAM CO. GA 03/27/2011 14:13 EST-5 Hail 2.75 in. 0 0 0.00K 0.00K
RINCON EFFINGHAM CO. GA 03/27/2011 14:15 EST-5 Hail 1.25 in. 0 0 0.00K 0.00K
CENTRAL JCT CHATHAM CO. GA 03/27/2011 14:55 EST-5 Hail 1.00 in. 0 0 0.00K 0.00K
SAVANNAH CHATHAM CO. GA 03/27/2011 15:02 EST-5 Hail 1.00 in. 0 0 0.00K 0.00K
SAVANNAH CHATHAM CO. GA 03/27/2011 15:05 EST-5 Hail 0.75 in. 0 0 0.00K 0.00K
SAVANNAH CHATHAM CO. GA 03/27/2011 15:06 EST-5 Hail 0.88 in. 0 0 0.00K 0.00K
WILMINGTON IS CHATHAM CO. GA 03/27/2011 15:07 EST-5 Hail 1.00 in. 0 0 0.00K 0.00K
FT SCREVEN CHATHAM CO. GA 03/27/2011 15:07 EST-5 Hail 2.00 in. 0 0 0.00K 0.00K
PARKERSBURG CHATHAM CO. GA 03/27/2011 15:08 EST-5 Hail 1.50 in. 0 0 0.00K 0.00K
WILMINGTON IS CHATHAM CO. GA 03/27/2011 15:08 EST-5 Hail 1.00 in. 0 0 0.00K 0.00K
THUNDERBOLT CHATHAM CO. GA 03/27/2011 15:10 EST-5 Hail 1.75 in. 0 0 0.00K 0.00K
SAVANNAH CHATHAM CO. GA 03/27/2011 15:12 EST-5 Hail 1.00 in. 0 0 0.00K 0.00K
THUNDERBOLT CHATHAM CO. GA 03/27/2011 15:14 EST-5 Hail 0.88 in. 0 0 0.00K 0.00K
WILMINGTON IS CHATHAM CO. GA 03/27/2011 15:15 EST-5 Hail 1.25 in. 0 0 0.00K 0.00K
SAVANNAH BEACH CHATHAM CO. GA 03/27/2011 15:18 EST-5 Hail 1.00 in. 0 0 0.00K 0.00K
WILMINGTON IS CHATHAM CO. GA 03/27/2011 15:18 EST-5 Hail 1.25 in. 0 0 0.00K 0.00K
FT SCREVEN CHATHAM CO. GA 03/27/2011 15:20 EST-5 Hail 1.25 in. 0 0 0.00K 0.00K
SAVANNAH BEACH CHATHAM CO. GA 03/27/2011 15:25 EST-5 Hail 1.00 in. 0 0 0.00K 0.00K
SAVANNAH BEACH CHATHAM CO. GA 03/27/2011 15:25 EST-5 Hail 1.00 in. 0 0 0.00K 0.00K
REIDSVILLE ARPT TATTNALL CO. GA 03/27/2011 15:27 EST-5 Hail 1.00 in. 0 0 0.00K 0.00K
THUNDERBOLT CHATHAM CO. GA 03/27/2011 15:30 EST-5 Hail 1.00 in. 0 0 0.00K 0.00K
SANDFLY CHATHAM CO. GA 03/27/2011 15:30 EST-5 Hail 0.88 in. 0 0 0.00K 0.00K
SAVANNAH CHATHAM CO. GA 03/27/2011 15:30 EST-5 Hail 1.00 in. 0 0 10.00K 0.00K
PARKERSBURG CHATHAM CO. GA 03/27/2011 15:34 EST-5 Hail 1.75 in. 0 0 0.00K 0.00K
WILMINGTON IS CHATHAM CO. GA 03/27/2011 15:40 EST-5 Hail 1.00 in. 0 0 0.00K 0.00K
SAVANNAH BEACH CHATHAM CO. GA 03/27/2011 15:40 EST-5 Hail 1.00 in. 0 0 0.00K 0.00K
MIDWAY TATTNALL CO. GA 03/27/2011 15:42 EST-5 Hail 2.75 in. 0 0 2.00K 0.00K
WALTHOURVILLE LIBERTY CO. GA 03/27/2011 15:47 EST-5 Hail 1.00 in. 0 0 0.00K 0.00K
THUNDERBOLT CHATHAM CO. GA 03/27/2011 15:52 EST-5 Hail 1.00 in. 0 0 0.00K 0.00K
SAVANNAH BEACH CHATHAM CO. GA 03/27/2011 15:54 EST-5 Hail 1.00 in. 0 0 0.00K 0.00K
Totals: 0 0 28.00K 0.00K